Погода Митаги-Казмалярна неделю

Республика Дагестан, Россия

26 мая-01 июня
  • 26мая
    Сегодня
    +14°
    +22°
    Практически безоблачно
    ВремяПогодаТемператураВлажностьДавлениеВетер, м/сВероятность осадков
    00:00Ясно и безоблачно+15°C95 %748 мм2.3 м/с3 %
    03:00Ясно и безоблачно+15°C92 %747 мм2.2 м/с2 %
    06:00Облачно с прояснениями+17°C78 %747 мм2.8 м/с3 %
    09:00Облачно с прояснениями+21°C68 %746 мм6.1 м/с7 %
    12:00Практически безоблачно+22°C66 %745 мм6.6 м/с7 %
    15:00Практически безоблачно+20°C67 %744 мм4.6 м/с13 %
    18:00Облачно с прояснениями+18°C73 %744 мм2.4 м/с9 %
    21:00Ясно и безоблачно+16°C87 %745 мм1.2 м/с6 %
  • 27мая
    Понедельник
    +14°
    +23°
    Практически безоблачно
    ВремяПогодаТемператураВлажностьДавлениеВетер, м/сВероятность осадков
    00:00Практически безоблачно+16°C89 %745 мм1.9 м/с3 %
    03:00Небольшая облачность+15°C92 %745 мм1.2 м/с2 %
    06:00Облачно с прояснениями+17°C85 %747 мм2.6 м/с3 %
    09:00Облачно с прояснениями+21°C70 %747 мм2.9 м/с4 %
    12:00Небольшая облачность+23°C64 %748 мм3.5 м/с10 %
    15:00Практически безоблачно+21°C62 %748 мм2.6 м/с10 %
    18:00Ясно и безоблачно+19°C64 %748 мм1.3 м/с5 %
    21:00Ясно и безоблачно+17°C80 %749 мм1.2 м/с1 %
  • 28мая
    Вторник
    +15°
    +24°
    Облачно с прояснениями
    ВремяПогодаТемператураВлажностьДавлениеВетер, м/сВероятность осадков
    00:00Ясно и безоблачно+16°C86 %748 мм1.2 м/с2 %
    03:00Практически безоблачно+17°C65 %748 мм0.8 м/с2 %
    06:00Ясно и безоблачно+18°C67 %748 мм1.1 м/с2 %
    09:00Практически безоблачно+22°C54 %748 мм2.1 м/с2 %
    12:00Облачно с прояснениями+24°C52 %748 мм3.1 м/с3 %
    15:00Облачно с прояснениями+22°C59 %747 мм1.5 м/с3 %
    18:00Практически безоблачно+21°C67 %747 мм0.9 м/с2 %
    21:00Ясно и безоблачно+18°C80 %746 мм1.3 м/с2 %
  • 29мая
    Среда
    +18°
    +26°
    Ясно и безоблачно
    ВремяПогодаТемператураВлажностьДавлениеВетер, м/сВероятность осадков
    00:00Ясно и безоблачно+18°C77 %745 мм0.1 м/с2 %
    03:00Ясно и безоблачно+17°C87 %745 мм1.4 м/с2 %
    06:00Ясно и безоблачно+19°C73 %744 мм1.2 м/с2 %
    09:00Облачно с прояснениями+24°C53 %744 мм2.4 м/с2 %
    12:00Облачно с прояснениями+25°C55 %743 мм3.6 м/с2 %
    15:00Ясно и безоблачно+24°C66 %742 мм2.9 м/с2 %
    18:00Ясно и безоблачно+21°C75 %742 мм1.2 м/с2 %
    21:00Ясно и безоблачно+19°C91 %743 мм2.9 м/с2 %
  • 30мая
    Четверг
    +18°
    +26°
    Практически безоблачно
    ВремяПогодаТемператураВлажностьДавлениеВетер, м/сВероятность осадков
    00:00Ясно и безоблачно+18°C91 %742 мм3.1 м/с2 %
    03:00Ясно и безоблачно+18°C86 %742 мм2.3 м/с2 %
    06:00Ясно и безоблачно+21°C75 %743 мм1.3 м/с2 %
    09:00Ясно и безоблачно+25°C65 %743 мм1.4 м/с2 %
    12:00Практически безоблачно+26°C67 %743 мм3.0 м/с2 %
    15:00Практически безоблачно+25°C65 %743 мм2.7 м/с2 %
    18:00Ясно и безоблачно+23°C70 %742 мм1.0 м/с2 %
    21:00Ясно и безоблачно+20°C88 %743 мм0.8 м/с2 %
Мы используем cookies
Соглашаюсь